Time;durP1;ratioP1;P1;durP2;ratioP2;P2;SDS_P1;SDS_P2;PMS_P1;PMS_P2;Temp;Humidity;BMP_temperature;BMP_pressure;BME280_temperature;BME280_humidity;BME280_pressure;Samples;Min_cycle;Max_cycle;Signal;HPM_P1;HPM_P2
2022/12/01 00:01:42;;;;;;;115.25;41.35;;;;;;;0.39;91.03;102228.22;7391600;19;20510;-70
2022/12/01 00:04:10;;;;;;;117.25;40.88;;;;;;;0.40;90.98;102227.38;7392094;19;20035;-70
2022/12/01 00:06:38;;;;;;;125.07;42.95;;;;;;;0.42;91.00;102224.88;7392007;19;20022;-70
2022/12/01 00:12:02;;;;;;;120.40;39.35;;;;;;;0.42;91.03;102228.34;7396634;19;20016;-70
2022/12/01 00:14:30;;;;;;;120.47;41.67;;;;;;;0.43;90.88;102232.69;7400222;19;20019;-70
2022/12/01 00:16:59;;;;;;;109.95;39.72;;;;;;;0.42;90.70;102228.34;7398560;19;20047;-70
2022/12/01 00:19:28;;;;;;;118.43;42.83;;;;;;;0.42;90.82;102230.94;7401056;19;20019;-70
2022/12/01 00:21:56;;;;;;;107.18;39.22;;;;;;;0.44;91.02;102237.06;7398031;19;20371;-70
2022/12/01 00:24:25;;;;;;;127.13;41.47;;;;;;;0.45;91.09;102227.59;7397913;19;20371;-69
2022/12/01 00:26:53;;;;;;;111.25;43.50;;;;;;;0.43;90.83;102230.13;7397813;19;20006;-70
2022/12/01 00:29:24;;;;;;;114.65;39.60;;;;;;;0.42;90.83;102236.09;7401041;19;20014;-70
2022/12/01 00:31:53;;;;;;;113.78;42.65;;;;;;;0.44;90.80;102225.81;7399040;19;20032;-69
2022/12/01 00:34:24;;;;;;;117.53;43.50;;;;;;;0.43;90.82;102226.63;7399520;19;20015;-70
2022/12/01 00:36:53;;;;;;;134.68;50.28;;;;;;;0.43;90.76;102226.63;7400985;19;20022;-70
2022/12/01 00:39:21;;;;;;;125.15;42.10;;;;;;;0.41;90.67;102229.16;7400438;19;20014;-71
2022/12/01 00:41:50;;;;;;;116.78;42.55;;;;;;;0.34;90.73;102214.19;7398369;19;20014;-70
2022/12/01 00:44:18;;;;;;;114.07;41.85;;;;;;;0.37;91.00;102226.34;7400379;19;20026;-71
2022/12/01 00:46:49;;;;;;;108.60;39.55;;;;;;;0.35;90.83;102226.28;7399924;19;20046;-71
2022/12/01 00:49:18;;;;;;;112.53;40.15;;;;;;;0.34;90.85;102227.09;7400514;19;20041;-70
2022/12/01 00:51:47;;;;;;;109.30;41.22;;;;;;;0.32;90.98;102228.75;7397456;19;20014;-71
2022/12/01 00:54:15;;;;;;;106.20;40.97;;;;;;;0.29;91.17;102232.09;7398973;19;20018;-72
2022/12/01 00:56:44;;;;;;;104.75;41.38;;;;;;;0.30;91.15;102233.88;7399316;19;20438;-72
2022/12/01 00:59:13;;;;;;;115.30;40.28;;;;;;;0.27;91.12;102231.13;7399758;19;20039;-73
2022/12/01 01:01:42;;;;;;;124.72;43.35;;;;;;;0.27;91.13;102232.84;7397523;19;20014;-72
2022/12/01 01:04:13;;;;;;;116.93;39.90;;;;;;;0.26;91.39;102231.94;7399231;19;20533;-72
2022/12/01 01:06:42;;;;;;;121.78;41.80;;;;;;;0.27;91.13;102230.25;7399905;19;20078;-71
2022/12/01 01:09:10;;;;;;;123.38;41.42;;;;;;;0.28;91.11;102226.88;7399322;19;20021;-73
2022/12/01 01:11:39;;;;;;;121.97;43.22;;;;;;;0.29;91.34;102226.94;7397235;19;20019;-72
2022/12/01 01:14:09;;;;;;;114.32;42.53;;;;;;;0.29;91.33;102229.50;7398625;19;20027;-74
2022/12/01 01:16:37;;;;;;;113.13;40.08;;;;;;;0.28;91.02;102229.44;7398729;19;20010;-73
2022/12/01 01:19:06;;;;;;;111.72;39.63;;;;;;;0.25;91.26;102221.53;7397767;19;20483;-73
2022/12/01 01:21:37;;;;;;;109.13;40.72;;;;;;;0.24;91.30;102225.84;7397449;19;20015;-72
2022/12/01 01:24:07;;;;;;;111.43;40.53;;;;;;;0.26;91.17;102228.47;7399345;19;20018;-72
2022/12/01 01:26:36;;;;;;;107.30;37.97;;;;;;;0.24;91.04;102219.78;7397382;19;20031;-72
2022/12/01 01:29:07;;;;;;;107.07;39.47;;;;;;;0.20;91.17;102216.16;7398340;19;20488;-73
2022/12/01 01:31:37;;;;;;;112.88;41.63;;;;;;;0.18;90.92;102224.66;7397332;19;20018;-71
2022/12/01 01:34:05;;;;;;;110.75;40.40;;;;;;;0.15;91.19;102225.41;7398058;19;20074;-73
2022/12/01 01:36:36;;;;;;;112.68;40.22;;;;;;;0.13;91.38;102227.94;7398496;19;20018;-73
2022/12/01 01:39:05;;;;;;;102.43;38.38;;;;;;;0.10;91.18;102227.81;7398885;19;20026;-73
2022/12/01 01:41:34;;;;;;;106.05;38.92;;;;;;;0.09;91.52;102230.28;7396458;19;20480;-74
2022/12/01 01:44:04;;;;;;;102.93;37.75;;;;;;;0.07;91.57;102222.50;7398214;19;20035;-74
2022/12/01 01:46:35;;;;;;;113.22;39.97;;;;;;;0.05;91.40;102220.66;7398238;19;20334;-73
2022/12/01 01:49:06;;;;;;;105.43;38.75;;;;;;;0.06;91.68;102230.16;7398456;19;20015;-74
2022/12/01 01:51:42;;;;;;;111.53;39.47;;;;;;;0.06;91.64;102230.16;7396318;19;20025;-74
2022/12/01 01:54:15;;;;;;;101.55;36.42;;;;;;;0.04;91.63;102232.69;7397918;19;20026;-74
2022/12/01 01:56:45;;;;;;;89.85;35.65;;;;;;;0.04;91.65;102237.84;7397437;19;20610;-74
2022/12/01 01:59:16;;;;;;;96.05;35.80;;;;;;;-0.01;91.43;102231.59;7397781;19;20014;-74
2022/12/01 02:01:45;;;;;;;91.18;32.83;;;;;;;0.00;91.46;102233.38;7395799;19;20078;-73
2022/12/01 02:04:14;;;;;;;98.10;37.03;;;;;;;0.00;91.63;102233.38;7397718;19;20023;-73
2022/12/01 02:06:45;;;;;;;98.75;36.05;;;;;;;0.02;91.56;102231.72;7397531;19;20074;-70
2022/12/01 02:09:14;;;;;;;99.75;35.83;;;;;;;0.02;91.50;102229.13;7397473;19;20031;-71
2022/12/01 02:12:05;;;;;;;101.20;36.10;;;;;;;0.02;91.39;102230.84;7395532;19;20477;-71
2022/12/01 02:14:57;;;;;;;92.68;36.08;;;;;;;0.01;91.39;102229.06;7397679;19;20098;-69
2022/12/01 02:17:33;;;;;;;93.57;35.08;;;;;;;-0.02;91.59;102229.81;7397279;19;20026;-69
2022/12/01 02:20:28;;;;;;;94.15;35.88;;;;;;;-0.03;91.56;102225.47;7397367;19;20090;-69
2022/12/01 02:23:20;;;;;;;97.50;34.85;;;;;;;-0.03;91.52;102228.06;7397311;19;20026;-69
2022/12/01 02:26:03;;;;;;;97.53;35.10;;;;;;;-0.04;91.59;102221.13;7394495;19;20514;-74
2022/12/01 02:28:48;;;;;;;93.78;36.45;;;;;;;-0.04;91.38;102223.69;7397202;19;20018;-71
2022/12/01 02:31:27;;;;;;;90.30;36.83;;;;;;;-0.05;91.62;102224.50;7393396;19;20427;-71
2022/12/01 02:33:59;;;;;;;93.80;35.55;;;;;;;-0.09;91.58;102214.88;7396631;19;20018;-71
2022/12/01 02:36:36;;;;;;;94.63;34.17;;;;;;;-0.06;91.45;102227.94;7396266;19;20032;-71
2022/12/01 02:39:09;;;;;;;87.45;35.47;;;;;;;-0.06;91.63;102227.94;7394480;19;20014;-71
2022/12/01 02:41:43;;;;;;;92.93;34.53;;;;;;;-0.07;91.39;102224.44;7395266;19;20019;-71
2022/12/01 02:44:20;;;;;;;85.28;33.25;;;;;;;-0.11;91.46;102221.66;7396808;19;20422;-71
2022/12/01 02:46:56;;;;;;;89.88;35.28;;;;;;;-0.12;91.64;102225.94;7394132;19;20093;-71
2022/12/01 02:49:28;;;;;;;89.65;33.83;;;;;;;-0.13;91.68;102218.13;7394640;19;20071;-71
2022/12/01 02:51:58;;;;;;;95.63;34.65;;;;;;;-0.14;91.46;102217.22;7394289;19;20035;-71
2022/12/01 02:54:31;;;;;;;92.65;34.80;;;;;;;-0.14;91.70;102216.34;7395209;19;20078;-71
2022/12/01 02:57:00;;;;;;;95.80;35.00;;;;;;;-0.17;91.70;102212.81;7393788;19;20082;-71
2022/12/01 02:59:28;;;;;;;100.30;34.30;;;;;;;-0.14;91.72;102216.34;7395877;19;20019;-71
2022/12/01 03:02:13;;;;;;;98.45;37.25;;;;;;;-0.17;91.70;102217.97;7394324;19;20011;-71
2022/12/01 03:04:56;;;;;;;97.00;35.47;;;;;;;-0.18;91.79;102217.91;7393652;19;20015;-71
2022/12/01 03:07:45;;;;;;;101.03;37.55;;;;;;;-0.15;91.65;102212.91;7395726;19;20014;-72
2022/12/01 03:10:22;;;;;;;88.47;33.40;;;;;;;-0.13;91.69;102220.69;7395614;19;20022;-72
2022/12/01 03:13:01;;;;;;;96.22;33.53;;;;;;;-0.14;91.74;102227.53;7394603;19;20031;-71
2022/12/01 03:15:37;;;;;;;90.55;34.72;;;;;;;-0.12;91.86;102228.50;7396064;19;20485;-72
2022/12/01 03:18:20;;;;;;;98.07;34.28;;;;;;;-0.12;91.52;102225.06;7399303;19;20078;-71
2022/12/01 03:21:01;;;;;;;101.75;37.85;;;;;;;-0.12;91.80;102228.50;7394546;19;20022;-71
2022/12/01 03:23:36;;;;;;;101.15;37.85;;;;;;;-0.10;91.69;102226.91;7395707;19;20022;-71
2022/12/01 03:26:22;;;;;;;100.40;34.20;;;;;;;-0.13;91.64;102229.31;7394056;19;20027;-71
2022/12/01 03:28:56;;;;;;;110.18;35.08;;;;;;;-0.13;91.88;102231.91;7393260;19;20086;-72
2022/12/01 03:31:30;;;;;;;104.88;35.60;;;;;;;-0.13;91.76;102229.31;7394023;19;20049;-71
2022/12/01 03:34:04;;;;;;;;;;;;;;;-0.14;92.02;102227.53;7395359;19;20018;-71
2022/12/01 03:36:41;;;;;;;104.45;37.58;;;;;;;-0.14;92.03;102226.66;7393437;19;19922;-71
2022/12/01 03:39:15;;;;;;;108.00;34.97;;;;;;;-0.18;91.99;102225.66;7394401;19;20489;-71
2022/12/01 03:41:50;;;;;;;109.05;37.15;;;;;;;-0.21;92.02;102222.94;7395589;19;20029;-72
2022/12/01 03:44:21;;;;;;;;;;;;;;;-0.21;92.05;102220.34;7402813;19;20484;-71
2022/12/01 03:46:55;;;;;;;107.50;35.42;;;;;;;-0.24;92.01;102225.34;7402612;19;19978;-71
2022/12/01 03:49:27;;;;;;;109.28;35.55;;;;;;;-0.25;92.10;102224.47;7402364;19;20022;-71
2022/12/01 03:52:09;;;;;;;105.28;35.78;;;;;;;-0.25;92.10;102228.75;7399092;19;20030;-71
2022/12/01 03:54:49;;;;;;;104.88;36.92;;;;;;;-0.26;92.41;102220.13;7401218;19;20489;-71
2022/12/01 03:57:22;;;;;;;109.15;37.35;;;;;;;-0.28;92.42;102216.59;7402052;19;20011;-71
2022/12/01 03:59:51;;;;;;;111.97;36.93;;;;;;;-0.24;92.11;102223.69;7401960;19;20035;-71
2022/12/01 04:02:20;;;;;;;107.28;37.72;;;;;;;-0.24;92.23;102226.25;7398721;19;20018;-71
2022/12/01 04:04:51;;;;;;;104.88;37.15;;;;;;;-0.22;92.17;102232.34;7401191;19;20517;-71
2022/12/01 04:07:19;;;;;;;117.43;38.45;;;;;;;-0.19;92.46;102232.50;7401138;19;20022;-71
2022/12/01 04:09:48;;;;;;;102.70;36.78;;;;;;;-0.18;92.39;102235.97;7400782;19;20031;-71
2022/12/01 04:12:29;;;;;;;106.45;36.97;;;;;;;-0.18;92.41;102233.38;7398104;19;20015;-71
2022/12/01 04:14:59;;;;;;;113.60;38.95;;;;;;;-0.17;92.21;102241.19;7400945;19;20021;-72
2022/12/01 04:17:28;;;;;;;112.13;37.83;;;;;;;-0.17;92.35;102242.91;7400768;19;20473;-71
2022/12/01 04:19:59;;;;;;;113.93;37.47;;;;;;;-0.18;92.32;102242.03;7400872;19;20094;-72
2022/12/01 04:22:28;;;;;;;112.57;35.63;;;;;;;-0.17;92.16;102241.19;7400595;19;20070;-72
2022/12/01 04:24:57;;;;;;;107.53;37.22;;;;;;;-0.19;92.56;102240.25;7400851;19;20031;-72
2022/12/01 04:27:25;;;;;;;107.63;35.88;;;;;;;-0.18;92.40;102235.97;7398432;19;20485;-72
2022/12/01 04:29:54;;;;;;;106.68;36.35;;;;;;;-0.19;92.22;102235.09;7400755;19;20039;-71
2022/12/01 04:32:22;;;;;;;113.05;38.45;;;;;;;-0.25;92.28;102219.31;7398601;19;20026;-70
2022/12/01 04:34:51;;;;;;;111.20;39.25;;;;;;;-0.21;92.34;102233.25;7400212;19;20031;-70
2022/12/01 04:37:22;;;;;;;104.95;35.78;;;;;;;-0.23;92.54;102238.34;7400027;19;20023;-71
2022/12/01 04:39:50;;;;;;;113.72;38.13;;;;;;;-0.22;92.44;102237.50;7400778;19;20018;-71
2022/12/01 04:42:19;;;;;;;115.00;39.05;;;;;;;-0.21;92.41;102239.28;7397737;19;20109;-70
2022/12/01 04:44:47;;;;;;;97.20;35.58;;;;;;;-0.22;92.55;102234.94;7400040;19;20039;-70
2022/12/01 04:47:16;;;;;;;111.00;36.92;;;;;;;-0.20;92.64;102243.63;7399522;19;20031;-70
2022/12/01 04:49:44;;;;;;;113.38;38.25;;;;;;;-0.20;92.37;102248.78;7399877;19;20014;-70
2022/12/01 04:52:13;;;;;;;116.75;38.03;;;;;;;-0.19;92.45;102252.25;7397491;19;20371;-71
2022/12/01 04:54:44;;;;;;;108.50;38.60;;;;;;;-0.18;92.60;102249.75;7397691;19;20015;-71
2022/12/01 04:57:12;;;;;;;113.82;39.10;;;;;;;-0.19;92.36;102253.16;7399327;19;20485;-71
2022/12/01 04:59:41;;;;;;;107.20;38.00;;;;;;;-0.22;92.51;102250.41;7399822;19;20097;-70
2022/12/01 05:02:09;;;;;;;112.82;37.78;;;;;;;-0.19;92.46;102259.97;7396994;19;20031;-70
2022/12/01 05:04:40;;;;;;;113.90;38.03;;;;;;;-0.19;92.72;102258.31;7398946;19;20398;-69
2022/12/01 05:07:09;;;;;;;111.75;38.08;;;;;;;-0.16;92.53;102262.72;7398887;19;20087;-69
2022/12/01 05:09:38;;;;;;;112.55;37.17;;;;;;;-0.17;92.51;102260.94;7399105;19;20014;-70
2022/12/01 05:12:09;;;;;;;123.50;45.80;;;;;;;-0.14;92.71;102260.22;7398146;19;20088;-70
2022/12/01 05:14:37;;;;;;;110.38;36.28;;;;;;;-0.12;92.60;102263.75;7399005;19;20387;-70
2022/12/01 05:17:06;;;;;;;118.25;38.72;;;;;;;-0.14;92.66;102260.22;7396681;19;20018;-70
2022/12/01 05:22:15;;;;;;;106.22;39.05;;;;;;;-0.17;92.10;102263.53;7396395;19;20010;-71
2022/12/01 05:24:43;;;;;;;105.07;35.05;;;;;;;-0.19;92.36;102265.16;7396396;19;20039;-71
2022/12/01 05:27:14;;;;;;;104.57;37.17;;;;;;;-0.23;92.20;102264.16;7396925;19;20011;-71
2022/12/01 05:29:43;;;;;;;105.68;36.03;;;;;;;-0.24;92.09;102266.63;7398236;19;20102;-70
2022/12/01 05:32:11;;;;;;;113.20;39.95;;;;;;;-0.26;92.25;102266.56;7396307;19;20022;-69
2022/12/01 05:34:40;;;;;;;103.13;37.00;;;;;;;-0.28;92.23;102267.31;7395595;19;20007;-71
2022/12/01 05:37:09;;;;;;;103.97;38.45;;;;;;;-0.28;92.48;102267.31;7396976;19;20078;-71
2022/12/01 05:39:39;;;;;;;112.53;40.38;;;;;;;-0.28;92.62;102269.88;7395622;19;20470;-71
2022/12/01 05:42:07;;;;;;;111.07;39.92;;;;;;;-0.28;92.40;102269.88;7395838;19;20014;-70
2022/12/01 05:44:38;;;;;;;105.50;35.63;;;;;;;-0.29;92.40;102258.69;7397879;19;20026;-71
2022/12/01 05:47:07;;;;;;;110.20;39.50;;;;;;;-0.27;92.79;102269.94;7398302;19;20031;-71
2022/12/01 05:49:35;;;;;;;126.53;42.13;;;;;;;-0.21;93.00;102277.09;7395270;19;20426;-71
2022/12/01 05:52:04;;;;;;;122.25;41.03;;;;;;;-0.16;93.17;102275.63;7395993;19;20019;-71
2022/12/01 05:54:32;;;;;;;116.78;41.65;;;;;;;-0.13;92.63;102280.03;7395573;19;20024;-71
2022/12/01 05:57:01;;;;;;;103.10;39.42;;;;;;;-0.14;92.56;102270.53;7396902;19;20426;-70
2022/12/01 05:59:29;;;;;;;104.00;37.13;;;;;;;-0.14;92.54;102273.09;7397192;19;20027;-70
2022/12/01 06:02:00;;;;;;;109.85;37.75;;;;;;;-0.15;92.48;102279.06;7394599;19;20018;-69
2022/12/01 06:04:29;;;;;;;110.22;35.90;;;;;;;-0.15;92.56;102279.97;7393587;19;20513;-71
2022/12/01 06:06:57;;;;;;;107.10;38.17;;;;;;;-0.14;92.44;102283.44;7396511;19;20088;-70
2022/12/01 06:09:26;;;;;;;105.68;38.70;;;;;;;-0.17;92.21;102279.88;7405883;19;20014;-70
2022/12/01 06:11:54;;;;;;;102.07;38.35;;;;;;;-0.15;92.41;102279.06;7411491;19;20014;-71
2022/12/01 06:14:23;;;;;;;103.95;38.20;;;;;;;-0.16;92.36;102285.94;7399277;19;20379;-71
2022/12/01 06:16:51;;;;;;;106.35;39.20;;;;;;;-0.15;91.90;102281.66;7395345;19;20022;-70
2022/12/01 06:19:22;;;;;;;116.60;41.55;;;;;;;-0.16;92.03;102285.94;7396554;19;20011;-69
2022/12/01 06:21:51;;;;;;;103.93;39.20;;;;;;;-0.16;92.07;102288.53;7394729;19;20066;-71
2022/12/01 06:24:19;;;;;;;103.03;38.08;;;;;;;-0.18;91.85;102288.47;7396283;19;20018;-70
2022/12/01 06:26:48;;;;;;;109.65;38.05;;;;;;;-0.19;91.52;102286.69;7396507;19;20081;-71
2022/12/01 06:29:16;;;;;;;101.50;37.85;;;;;;;-0.20;91.84;102294.34;7396080;19;20143;-70
2022/12/01 06:31:45;;;;;;;102.55;36.33;;;;;;;-0.21;91.80;102293.47;7394803;19;20036;-71
2022/12/01 06:34:13;;;;;;;101.60;39.42;;;;;;;-0.21;91.95;102293.47;7396391;19;20007;-71
2022/12/01 06:36:44;;;;;;;102.38;37.80;;;;;;;-0.23;91.97;102289.94;7393661;19;20481;-71
2022/12/01 06:39:13;;;;;;;102.40;38.80;;;;;;;-0.21;91.79;102302.91;7394551;19;20015;-69
2022/12/01 06:41:41;;;;;;;97.18;35.80;;;;;;;-0.22;91.71;102299.41;7395237;19;20031;-71
2022/12/01 06:44:10;;;;;;;103.85;40.28;;;;;;;-0.22;92.00;102307.16;7393857;19;20027;-71
2022/12/01 06:46:38;;;;;;;102.97;41.00;;;;;;;-0.22;91.80;102302.00;7395976;19;20022;-71
2022/12/01 06:49:07;;;;;;;104.38;40.60;;;;;;;-0.21;92.04;102297.75;7395387;19;20383;-70
2022/12/01 06:51:35;;;;;;;102.40;39.75;;;;;;;-0.20;91.61;102308.13;7394867;19;20035;-70
2022/12/01 06:54:06;;;;;;;99.38;37.20;;;;;;;-0.24;91.56;102311.38;7395553;19;20423;-70
2022/12/01 06:56:35;;;;;;;92.65;34.67;;;;;;;-0.23;91.91;102317.41;7395495;19;20090;-71
2022/12/01 06:59:03;;;;;;;103.75;40.60;;;;;;;-0.21;91.64;102318.38;7395865;19;20031;-70
2022/12/01 07:01:32;;;;;;;95.85;36.67;;;;;;;-0.25;91.41;102314.75;7393909;19;20423;-71
2022/12/01 07:04:00;;;;;;;97.15;39.30;;;;;;;-0.21;91.52;102315.81;7393751;19;20022;-70
2022/12/01 07:06:31;;;;;;;108.82;38.30;;;;;;;-0.22;91.71;102317.47;7394877;19;20031;-69
2022/12/01 07:08:59;;;;;;;97.07;38.13;;;;;;;-0.24;91.72;102319.13;7393210;19;20032;-71
2022/12/01 07:11:31;;;;;;;97.03;41.28;;;;;;;-0.22;91.49;102322.63;7393554;19;20090;-71
2022/12/01 07:14:00;;;;;;;100.20;39.38;;;;;;;-0.22;91.84;102330.38;7393751;19;20040;-71
2022/12/01 07:16:28;;;;;;;90.78;37.78;;;;;;;-0.20;91.52;102327.91;7391818;19;20027;-70
2022/12/01 07:18:58;;;;;;;102.75;38.97;;;;;;;-0.20;91.69;102331.34;7394466;19;20039;-70
2022/12/01 07:21:27;;;;;;;95.75;38.08;;;;;;;-0.20;91.83;102323.59;7394663;19;20014;-71
2022/12/01 07:23:57;;;;;;;93.68;37.78;;;;;;;-0.17;91.52;102330.59;7394645;19;20140;-71
2022/12/01 07:26:25;;;;;;;98.75;38.47;;;;;;;-0.15;91.50;102330.69;7393983;19;20033;-70
2022/12/01 07:28:56;;;;;;;97.30;39.17;;;;;;;-0.16;91.34;102329.81;7394952;19;20036;-71
2022/12/01 07:31:25;;;;;;;99.97;37.33;;;;;;;-0.15;91.62;102333.25;7393706;19;20084;-71
2022/12/01 07:33:53;;;;;;;100.47;40.17;;;;;;;-0.13;91.54;102331.66;7394521;19;20070;-70
2022/12/01 07:36:22;;;;;;;99.43;40.22;;;;;;;-0.12;91.74;102323.09;7393771;19;20033;-71
2022/12/01 07:38:50;;;;;;;97.07;39.80;;;;;;;-0.11;91.26;102327.44;7394759;19;20014;-70
2022/12/01 07:41:19;;;;;;;97.97;38.13;;;;;;;-0.12;91.24;102323.09;7393480;19;20040;-71
2022/12/01 07:43:49;;;;;;;98.05;39.85;;;;;;;-0.12;91.28;102323.97;7394559;19;20536;-71
2022/12/01 07:46:22;;;;;;;97.20;39.22;;;;;;;-0.14;91.24;102329.88;7395024;19;20022;-70
2022/12/01 07:48:50;;;;;;;89.30;37.25;;;;;;;-0.12;91.37;102323.09;7392936;19;20082;-70
2022/12/01 07:51:19;;;;;;;97.15;37.53;;;;;;;-0.11;91.54;102322.28;7392980;19;20457;-70
2022/12/01 07:53:49;;;;;;;95.30;39.15;;;;;;;-0.10;91.25;102326.63;7394089;19;20011;-69
2022/12/01 07:56:18;;;;;;;103.55;41.50;;;;;;;-0.07;91.44;102329.34;7393496;19;20014;-70
2022/12/01 07:58:47;;;;;;;107.60;40.70;;;;;;;-0.07;91.40;102327.66;7392249;19;20493;-70
2022/12/01 08:01:20;;;;;;;110.40;39.78;;;;;;;-0.07;91.29;102321.63;7392769;19;20502;-71
2022/12/01 08:03:50;;;;;;;98.80;40.00;;;;;;;-0.04;91.35;102334.66;7392528;19;20022;-69
2022/12/01 08:06:19;;;;;;;103.72;41.40;;;;;;;-0.03;91.47;102328.69;7392176;19;20078;-71
2022/12/01 08:08:49;;;;;;;102.75;38.95;;;;;;;-0.01;91.19;102327.94;7394010;19;20026;-70
2022/12/01 08:11:19;;;;;;;103.72;40.05;;;;;;;0.01;91.30;102330.59;7391589;19;20018;-71
2022/12/01 08:13:48;;;;;;;101.85;42.45;;;;;;;0.02;90.98;102326.34;7393507;19;20548;-69
2022/12/01 08:16:21;;;;;;;145.18;58.42;;;;;;;0.01;90.98;102330.59;7393121;19;20018;-70
2022/12/01 08:18:49;;;;;;;101.15;39.97;;;;;;;0.00;91.13;102334.00;7391984;19;20101;-71
2022/12/01 08:21:20;;;;;;;99.90;39.75;;;;;;;0.00;90.97;102334.00;7392160;19;20453;-70
2022/12/01 08:23:49;;;;;;;101.05;43.05;;;;;;;0.00;91.09;102331.44;7393758;19;20015;-70
2022/12/01 08:26:19;;;;;;;98.40;40.10;;;;;;;-0.01;91.22;102325.38;7392670;19;20481;-69
2022/12/01 08:28:48;;;;;;;101.50;41.80;;;;;;;0.02;91.05;102340.09;7393531;19;20010;-69
2022/12/01 08:31:21;;;;;;;96.05;41.03;;;;;;;0.02;91.20;102334.94;7398448;19;20488;-69
2022/12/01 08:33:50;;;;;;;93.43;39.80;;;;;;;0.03;91.26;102339.28;7400280;19;20481;-70
2022/12/01 08:36:20;;;;;;;94.47;39.80;;;;;;;0.04;91.08;102335.00;7399908;19;20039;-70
2022/12/01 08:38:50;;;;;;;98.38;39.42;;;;;;;0.04;90.88;102335.91;7400279;19;20035;-71
2022/12/01 08:41:19;;;;;;;95.25;38.67;;;;;;;0.06;90.64;102343.72;7399061;19;20035;-70
2022/12/01 08:43:47;;;;;;;106.47;40.78;;;;;;;0.06;91.02;102344.59;7397249;19;20023;-70
2022/12/01 08:46:16;;;;;;;104.15;42.10;;;;;;;0.06;90.51;102344.59;7400094;19;20086;-70
2022/12/01 08:48:47;;;;;;;102.60;42.08;;;;;;;0.06;90.61;102346.31;7400018;19;20082;-70
2022/12/01 08:51:18;;;;;;;97.50;39.80;;;;;;;0.07;90.21;102340.34;7398205;19;20516;-70
2022/12/01 08:53:49;;;;;;;102.18;43.83;;;;;;;0.05;90.44;102340.28;7400195;19;20037;-70
2022/12/01 08:56:19;;;;;;;102.13;41.40;;;;;;;0.07;90.43;102346.38;7397299;19;20492;-70
2022/12/01 08:58:49;;;;;;;106.20;42.97;;;;;;;0.09;90.22;102343.84;7399765;19;20026;-70
2022/12/01 09:01:18;;;;;;;102.80;41.63;;;;;;;0.05;89.94;102341.94;7398447;19;20018;-70
2022/12/01 09:04:03;;;;;;;95.75;42.15;;;;;;;0.05;90.33;102352.28;7399096;19;20015;-70
2022/12/01 09:06:33;;;;;;;93.40;39.20;;;;;;;0.09;90.20;102354.16;7399573;19;20028;-70
2022/12/01 09:09:02;;;;;;;102.45;41.20;;;;;;;0.09;89.99;102349.91;7398565;19;20014;-70
2022/12/01 09:11:37;;;;;;;104.75;41.55;;;;;;;0.12;90.37;102352.63;7397451;19;20028;-70
2022/12/01 09:14:06;;;;;;;100.53;41.58;;;;;;;0.15;90.29;102352.78;7398933;19;20018;-70
2022/12/01 09:16:34;;;;;;;97.65;40.90;;;;;;;0.18;89.79;102354.63;7398507;19;20007;-70
2022/12/01 09:19:12;;;;;;;97.32;42.33;;;;;;;0.20;89.95;102350.41;7398697;19;20369;-70
2022/12/01 09:21:42;;;;;;;93.60;39.47;;;;;;;0.20;89.82;102352.97;7397500;19;20081;-70
2022/12/01 09:24:13;;;;;;;98.43;40.75;;;;;;;0.21;89.56;102352.19;7399431;19;20014;-70
2022/12/01 09:26:42;;;;;;;102.85;43.50;;;;;;;0.23;89.39;102357.41;7398461;19;20418;-70
2022/12/01 09:29:12;;;;;;;95.07;41.53;;;;;;;0.24;89.52;102361.75;7398634;19;20074;-71
2022/12/01 09:31:42;;;;;;;91.88;40.13;;;;;;;0.25;89.62;102355.78;7396717;19;20014;-69
2022/12/01 09:34:15;;;;;;;96.82;41.72;;;;;;;0.27;89.14;102355.03;7398502;19;20018;-70
2022/12/01 09:36:44;;;;;;;97.05;39.45;;;;;;;0.28;89.16;102350.78;7398162;19;20093;-70
2022/12/01 09:39:14;;;;;;;97.03;39.67;;;;;;;0.29;89.05;102344.78;7396741;19;20039;-70
2022/12/01 09:41:46;;;;;;;99.13;43.53;;;;;;;0.29;88.99;102342.19;7395762;19;20420;-70
2022/12/01 09:44:23;;;;;;;99.82;41.38;;;;;;;0.30;89.18;102337.13;7397721;19;20019;-70
2022/12/01 09:46:56;;;;;;;105.38;43.63;;;;;;;0.32;88.86;102342.34;7395386;19;20021;-70
2022/12/01 09:49:46;;;;;;;94.95;40.28;;;;;;;0.35;89.37;102339.91;7397012;19;20139;-70
2022/12/01 09:52:19;;;;;;;99.55;40.97;;;;;;;0.37;88.51;102337.38;7395027;19;20023;-68
2022/12/01 09:54:49;;;;;;;98.60;40.40;;;;;;;0.40;88.51;102348.75;7395783;19;20018;-70
2022/12/01 09:57:26;;;;;;;107.43;42.80;;;;;;;0.43;88.61;102346.31;7394969;19;20022;-70
2022/12/01 09:59:56;;;;;;;97.20;40.13;;;;;;;0.45;88.75;102336.91;7395330;19;20031;-68
2022/12/01 10:02:31;;;;;;;101.82;43.47;;;;;;;0.48;88.35;102341.34;7397036;19;20010;-70
2022/12/01 10:05:06;;;;;;;104.43;45.38;;;;;;;0.49;88.16;102332.78;7397911;19;20018;-70
2022/12/01 10:07:39;;;;;;;98.97;42.30;;;;;;;0.50;88.01;102336.28;7397099;19;20035;-71
2022/12/01 10:10:14;;;;;;;100.30;42.63;;;;;;;0.49;87.85;102322.44;7397452;19;20098;-70
2022/12/01 10:12:45;;;;;;;151.00;65.22;;;;;;;0.52;88.17;102329.44;7397636;19;20078;-70
2022/12/01 10:15:27;;;;;;;110.10;46.38;;;;;;;0.54;87.78;102327.84;7395761;19;20018;-70
2022/12/01 10:18:14;;;;;;;101.07;41.05;;;;;;;0.56;88.23;102315.88;7394990;19;20094;-70
2022/12/01 10:20:51;;;;;;;113.18;43.10;;;;;;;0.59;88.13;102316.00;7394809;19;20052;-71
2022/12/01 10:23:35;;;;;;;115.75;43.92;;;;;;;0.62;88.05;102323.88;7396870;19;20047;-71
2022/12/01 10:26:09;;;;;;;;;;;;;;;0.62;86.80;102316.13;7398398;19;20061;-71
2022/12/01 10:29:10;;;;;;;98.70;44.83;;;;;;;0.59;87.34;102316.88;7394559;19;19919;-72
2022/12/01 10:31:50;;;;;;;107.10;45.88;;;;;;;0.55;87.37;102309.81;7395304;19;20015;-71
2022/12/01 10:34:22;;;;;;;111.47;46.15;;;;;;;0.58;88.07;102309.06;7395886;19;20018;-69
2022/12/01 10:36:53;;;;;;;109.85;46.55;;;;;;;0.59;88.03;102310.84;7395738;19;20484;-70
2022/12/01 10:39:31;;;;;;;117.15;46.05;;;;;;;0.60;87.73;102315.19;7395829;19;20430;-69
2022/12/01 10:42:07;;;;;;;111.20;47.10;;;;;;;0.60;87.67;102304.88;7393711;19;20481;-70
2022/12/01 10:44:36;;;;;;;112.30;46.78;;;;;;;0.61;87.54;102307.50;7395544;19;20480;-69
2022/12/01 10:47:05;;;;;;;114.53;46.85;;;;;;;0.61;87.89;102306.66;7395748;19;20020;-69
2022/12/01 10:49:39;;;;;;;112.57;48.10;;;;;;;0.61;87.78;102301.47;7395438;19;20031;-69
2022/12/01 10:52:34;;;;;;;118.72;50.03;;;;;;;0.66;87.29;102307.72;7391921;19;20095;-70
2022/12/01 10:55:04;;;;;;;122.40;48.75;;;;;;;0.67;87.48;102308.59;7395189;19;20097;-68
2022/12/01 10:57:33;;;;;;;122.78;49.58;;;;;;;0.69;87.73;102301.81;7394695;19;20078;-70
2022/12/01 11:00:06;;;;;;;117.90;50.30;;;;;;;0.69;87.06;102313.00;7396319;19;20026;-70
2022/12/01 11:02:34;;;;;;;121.18;47.75;;;;;;;0.68;87.21;102313.81;7393617;19;20035;-68
2022/12/01 11:05:06;;;;;;;121.03;50.25;;;;;;;0.68;87.23;102310.38;7398241;19;20022;-74
2022/12/01 11:07:44;;;;;;;125.63;52.92;;;;;;;0.68;87.63;102303.50;7395439;19;20031;-71
2022/12/01 11:10:19;;;;;;;119.88;49.45;;;;;;;0.71;87.83;102298.47;7394294;19;20007;-73
2022/12/01 11:12:55;;;;;;;116.78;48.13;;;;;;;0.72;87.48;102296.75;7394490;19;20489;-72
2022/12/01 11:15:27;;;;;;;121.90;48.45;;;;;;;0.74;87.23;102292.56;7396114;19;20042;-72
2022/12/01 11:18:01;;;;;;;126.80;49.50;;;;;;;0.72;87.03;102294.19;7395580;19;20090;-73
2022/12/01 11:20:33;;;;;;;115.50;45.60;;;;;;;0.75;86.63;102289.16;7395170;19;20035;-72
2022/12/01 11:23:27;;;;;;;125.28;49.53;;;;;;;0.74;86.88;102289.97;7396227;19;20026;-71
2022/12/01 11:26:05;;;;;;;123.45;49.53;;;;;;;0.72;86.51;102295.09;7394061;19;20019;-70
2022/12/01 11:28:36;;;;;;;120.35;51.28;;;;;;;0.73;86.75;102293.38;7393330;19;20027;-69
2022/12/01 11:36:45;;;;;;;131.05;52.83;;;;;;;0.71;86.72;102288.16;7390968;19;20017;-70
2022/12/01 11:39:27;;;;;;;124.65;51.40;;;;;;;0.72;86.55;102287.34;7393455;19;20086;-69
2022/12/01 11:41:58;;;;;;;123.45;48.97;;;;;;;0.70;86.66;102283.78;7392286;19;20035;-70